sensor_id;sensor_type;location;lat;lon;timestamp;temperature;humidity
48007;DHT22;33771;48.180;11.400;2023-07-29T00:00:46;16.20;99.90
48007;DHT22;33771;48.180;11.400;2023-07-29T00:03:11;16.10;99.90
48007;DHT22;33771;48.180;11.400;2023-07-29T00:05:37;16.10;99.90
48007;DHT22;33771;48.180;11.400;2023-07-29T00:08:03;16.10;99.90
48007;DHT22;33771;48.180;11.400;2023-07-29T00:10:31;16.10;99.90
48007;DHT22;33771;48.180;11.400;2023-07-29T00:12:57;16.10;99.90
48007;DHT22;33771;48.180;11.400;2023-07-29T00:15:22;16.10;99.90
48007;DHT22;33771;48.180;11.400;2023-07-29T00:17:48;16.10;99.90
48007;DHT22;33771;48.180;11.400;2023-07-29T00:20:14;16.10;99.90
48007;DHT22;33771;48.180;11.400;2023-07-29T00:22:39;16.10;99.90
48007;DHT22;33771;48.180;11.400;2023-07-29T00:25:05;16.10;99.90
48007;DHT22;33771;48.180;11.400;2023-07-29T00:27:31;16.10;99.90
48007;DHT22;33771;48.180;11.400;2023-07-29T00:29:56;16.10;99.90
48007;DHT22;33771;48.180;11.400;2023-07-29T00:32:22;16.10;99.90
48007;DHT22;33771;48.180;11.400;2023-07-29T00:34:48;16.10;99.90
48007;DHT22;33771;48.180;11.400;2023-07-29T00:37:14;16.10;99.90
48007;DHT22;33771;48.180;11.400;2023-07-29T00:39:40;16.10;99.90
48007;DHT22;33771;48.180;11.400;2023-07-29T00:42:06;16.10;99.90
48007;DHT22;33771;48.180;11.400;2023-07-29T00:44:32;16.20;99.90
48007;DHT22;33771;48.180;11.400;2023-07-29T00:46:58;16.20;99.90
48007;DHT22;33771;48.180;11.400;2023-07-29T00:49:26;16.20;99.90
48007;DHT22;33771;48.180;11.400;2023-07-29T00:51:51;16.20;99.90
48007;DHT22;33771;48.180;11.400;2023-07-29T00:54:17;16.20;99.90
48007;DHT22;33771;48.180;11.400;2023-07-29T00:56:42;16.10;99.90
48007;DHT22;33771;48.180;11.400;2023-07-29T00:59:08;16.10;99.90
48007;DHT22;33771;48.180;11.400;2023-07-29T01:01:34;16.20;99.90
48007;DHT22;33771;48.180;11.400;2023-07-29T01:04:00;16.10;99.90
48007;DHT22;33771;48.180;11.400;2023-07-29T01:06:46;16.10;99.90
48007;DHT22;33771;48.180;11.400;2023-07-29T01:09:40;16.10;99.90
48007;DHT22;33771;48.180;11.400;2023-07-29T01:14:51;16.00;99.90
48007;DHT22;33771;48.180;11.400;2023-07-29T01:17:29;16.00;99.90
48007;DHT22;33771;48.180;11.400;2023-07-29T01:20:08;15.90;99.90
48007;DHT22;33771;48.180;11.400;2023-07-29T01:22:36;15.90;99.90
48007;DHT22;33771;48.180;11.400;2023-07-29T01:25:02;15.90;99.90
48007;DHT22;33771;48.180;11.400;2023-07-29T01:27:28;15.80;99.90
48007;DHT22;33771;48.180;11.400;2023-07-29T01:29:56;15.80;99.90
48007;DHT22;33771;48.180;11.400;2023-07-29T01:32:57;15.80;99.90
48007;DHT22;33771;48.180;11.400;2023-07-29T01:35:47;15.80;99.90
48007;DHT22;33771;48.180;11.400;2023-07-29T01:38:35;15.70;99.90
48007;DHT22;33771;48.180;11.400;2023-07-29T01:41:02;15.70;99.90
48007;DHT22;33771;48.180;11.400;2023-07-29T01:43:29;15.60;99.90
48007;DHT22;33771;48.180;11.400;2023-07-29T01:45:55;15.60;99.90
48007;DHT22;33771;48.180;11.400;2023-07-29T01:48:20;15.60;99.90
48007;DHT22;33771;48.180;11.400;2023-07-29T01:50:46;15.60;99.90
48007;DHT22;33771;48.180;11.400;2023-07-29T01:53:12;15.60;99.90
48007;DHT22;33771;48.180;11.400;2023-07-29T01:55:38;15.50;99.90
48007;DHT22;33771;48.180;11.400;2023-07-29T01:58:04;15.60;99.90
48007;DHT22;33771;48.180;11.400;2023-07-29T02:00:30;15.50;99.90
48007;DHT22;33771;48.180;11.400;2023-07-29T02:02:55;15.50;99.90
48007;DHT22;33771;48.180;11.400;2023-07-29T02:05:21;15.50;99.90
48007;DHT22;33771;48.180;11.400;2023-07-29T02:07:46;15.50;99.90
48007;DHT22;33771;48.180;11.400;2023-07-29T02:10:12;15.50;99.90
48007;DHT22;33771;48.180;11.400;2023-07-29T02:12:38;15.40;99.90
48007;DHT22;33771;48.180;11.400;2023-07-29T02:15:04;15.40;99.90
48007;DHT22;33771;48.180;11.400;2023-07-29T02:17:30;15.40;99.90
48007;DHT22;33771;48.180;11.400;2023-07-29T02:19:56;15.40;99.90
48007;DHT22;33771;48.180;11.400;2023-07-29T02:22:22;15.40;99.90
48007;DHT22;33771;48.180;11.400;2023-07-29T02:24:47;15.40;99.90
48007;DHT22;33771;48.180;11.400;2023-07-29T02:27:13;15.30;99.90
48007;DHT22;33771;48.180;11.400;2023-07-29T02:29:38;15.30;99.90
48007;DHT22;33771;48.180;11.400;2023-07-29T02:32:04;15.30;99.90
48007;DHT22;33771;48.180;11.400;2023-07-29T02:34:30;15.30;99.90
48007;DHT22;33771;48.180;11.400;2023-07-29T02:36:56;15.30;99.90
48007;DHT22;33771;48.180;11.400;2023-07-29T02:39:21;15.20;99.90
48007;DHT22;33771;48.180;11.400;2023-07-29T02:41:47;15.20;99.90
48007;DHT22;33771;48.180;11.400;2023-07-29T02:44:12;15.20;99.90
48007;DHT22;33771;48.180;11.400;2023-07-29T02:46:38;15.20;99.90
48007;DHT22;33771;48.180;11.400;2023-07-29T02:49:04;15.20;99.90
48007;DHT22;33771;48.180;11.400;2023-07-29T02:51:30;15.20;99.90
48007;DHT22;33771;48.180;11.400;2023-07-29T02:53:56;15.20;99.90
48007;DHT22;33771;48.180;11.400;2023-07-29T02:56:22;15.20;99.90
48007;DHT22;33771;48.180;11.400;2023-07-29T02:58:47;15.20;99.90
48007;DHT22;33771;48.180;11.400;2023-07-29T03:01:13;15.20;99.90
48007;DHT22;33771;48.180;11.400;2023-07-29T03:03:39;15.20;99.90
48007;DHT22;33771;48.180;11.400;2023-07-29T03:06:07;15.20;99.90
48007;DHT22;33771;48.180;11.400;2023-07-29T03:08:32;15.20;99.90
48007;DHT22;33771;48.180;11.400;2023-07-29T03:10:58;15.20;99.90
48007;DHT22;33771;48.180;11.400;2023-07-29T03:13:24;15.20;99.90
48007;DHT22;33771;48.180;11.400;2023-07-29T03:15:51;15.20;99.90
48007;DHT22;33771;48.180;11.400;2023-07-29T03:18:16;15.20;99.90
48007;DHT22;33771;48.180;11.400;2023-07-29T03:20:42;15.20;99.90
48007;DHT22;33771;48.180;11.400;2023-07-29T03:23:07;15.20;99.90
48007;DHT22;33771;48.180;11.400;2023-07-29T03:25:33;15.20;99.90
48007;DHT22;33771;48.180;11.400;2023-07-29T03:27:59;15.20;99.90
48007;DHT22;33771;48.180;11.400;2023-07-29T03:30:24;15.20;99.90
48007;DHT22;33771;48.180;11.400;2023-07-29T03:32:50;15.30;99.90
48007;DHT22;33771;48.180;11.400;2023-07-29T03:35:16;15.30;99.90
48007;DHT22;33771;48.180;11.400;2023-07-29T03:37:42;15.30;99.90
48007;DHT22;33771;48.180;11.400;2023-07-29T03:40:08;15.40;99.90
48007;DHT22;33771;48.180;11.400;2023-07-29T03:42:36;15.40;99.90
48007;DHT22;33771;48.180;11.400;2023-07-29T03:45:02;15.40;99.90
48007;DHT22;33771;48.180;11.400;2023-07-29T03:47:28;15.50;99.90
48007;DHT22;33771;48.180;11.400;2023-07-29T03:49:53;15.50;99.90
48007;DHT22;33771;48.180;11.400;2023-07-29T03:52:19;15.50;99.90
48007;DHT22;33771;48.180;11.400;2023-07-29T03:54:45;15.60;99.90
48007;DHT22;33771;48.180;11.400;2023-07-29T03:57:11;15.60;99.90
48007;DHT22;33771;48.180;11.400;2023-07-29T03:59:36;15.60;99.90
48007;DHT22;33771;48.180;11.400;2023-07-29T04:02:02;15.70;99.90
48007;DHT22;33771;48.180;11.400;2023-07-29T04:04:27;15.70;99.90
48007;DHT22;33771;48.180;11.400;2023-07-29T04:06:53;15.80;99.90
48007;DHT22;33771;48.180;11.400;2023-07-29T04:09:18;15.80;99.90
48007;DHT22;33771;48.180;11.400;2023-07-29T04:11:44;15.90;99.90
48007;DHT22;33771;48.180;11.400;2023-07-29T04:14:10;15.90;99.90
48007;DHT22;33771;48.180;11.400;2023-07-29T04:16:35;15.90;99.90
48007;DHT22;33771;48.180;11.400;2023-07-29T04:19:01;15.90;99.90
48007;DHT22;33771;48.180;11.400;2023-07-29T04:21:26;15.90;99.90
48007;DHT22;33771;48.180;11.400;2023-07-29T04:23:52;15.90;99.90
48007;DHT22;33771;48.180;11.400;2023-07-29T04:26:17;15.90;99.90
48007;DHT22;33771;48.180;11.400;2023-07-29T04:28:43;15.90;99.90
48007;DHT22;33771;48.180;11.400;2023-07-29T04:31:09;15.90;99.90
48007;DHT22;33771;48.180;11.400;2023-07-29T04:33:34;16.00;99.90
48007;DHT22;33771;48.180;11.400;2023-07-29T04:36:00;16.00;99.90
48007;DHT22;33771;48.180;11.400;2023-07-29T04:38:31;16.00;99.90
48007;DHT22;33771;48.180;11.400;2023-07-29T04:41:00;16.00;99.90
48007;DHT22;33771;48.180;11.400;2023-07-29T04:43:32;16.00;99.90
48007;DHT22;33771;48.180;11.400;2023-07-29T04:45:58;16.00;99.90
48007;DHT22;33771;48.180;11.400;2023-07-29T04:48:24;16.10;99.90
48007;DHT22;33771;48.180;11.400;2023-07-29T04:50:49;16.10;99.90
48007;DHT22;33771;48.180;11.400;2023-07-29T04:53:15;16.20;99.90
48007;DHT22;33771;48.180;11.400;2023-07-29T04:55:42;16.30;99.90
48007;DHT22;33771;48.180;11.400;2023-07-29T04:58:08;16.40;99.90
48007;DHT22;33771;48.180;11.400;2023-07-29T05:00:34;16.50;99.90
48007;DHT22;33771;48.180;11.400;2023-07-29T05:03:00;16.60;99.90
48007;DHT22;33771;48.180;11.400;2023-07-29T05:05:26;16.70;99.90
48007;DHT22;33771;48.180;11.400;2023-07-29T05:07:52;16.80;99.90
48007;DHT22;33771;48.180;11.400;2023-07-29T05:10:18;16.90;99.90
48007;DHT22;33771;48.180;11.400;2023-07-29T05:12:43;16.90;99.90
48007;DHT22;33771;48.180;11.400;2023-07-29T05:15:09;17.00;99.90
48007;DHT22;33771;48.180;11.400;2023-07-29T05:17:35;17.10;99.90
48007;DHT22;33771;48.180;11.400;2023-07-29T05:20:00;17.20;99.90
48007;DHT22;33771;48.180;11.400;2023-07-29T05:22:26;17.20;99.90
48007;DHT22;33771;48.180;11.400;2023-07-29T05:24:51;17.30;99.90
48007;DHT22;33771;48.180;11.400;2023-07-29T05:27:17;17.30;99.90
48007;DHT22;33771;48.180;11.400;2023-07-29T05:29:42;17.40;99.90
48007;DHT22;33771;48.180;11.400;2023-07-29T05:32:08;17.50;99.90
48007;DHT22;33771;48.180;11.400;2023-07-29T05:34:33;17.60;99.90
48007;DHT22;33771;48.180;11.400;2023-07-29T05:36:59;17.60;99.90
48007;DHT22;33771;48.180;11.400;2023-07-29T05:39:25;17.70;99.90
48007;DHT22;33771;48.180;11.400;2023-07-29T05:41:50;17.80;99.90
48007;DHT22;33771;48.180;11.400;2023-07-29T05:44:16;17.80;99.90
48007;DHT22;33771;48.180;11.400;2023-07-29T05:46:41;17.80;99.90
48007;DHT22;33771;48.180;11.400;2023-07-29T05:49:07;17.80;99.90
48007;DHT22;33771;48.180;11.400;2023-07-29T05:51:32;17.80;99.90
48007;DHT22;33771;48.180;11.400;2023-07-29T05:53:58;17.80;99.90
48007;DHT22;33771;48.180;11.400;2023-07-29T05:56:23;17.80;99.90
48007;DHT22;33771;48.180;11.400;2023-07-29T05:58:49;17.80;99.90
48007;DHT22;33771;48.180;11.400;2023-07-29T06:01:15;17.80;99.90
48007;DHT22;33771;48.180;11.400;2023-07-29T06:03:40;17.80;99.90
48007;DHT22;33771;48.180;11.400;2023-07-29T06:06:06;17.70;99.90
48007;DHT22;33771;48.180;11.400;2023-07-29T06:08:32;17.70;99.90
48007;DHT22;33771;48.180;11.400;2023-07-29T06:10:59;17.60;99.90
48007;DHT22;33771;48.180;11.400;2023-07-29T06:13:25;17.60;99.90
48007;DHT22;33771;48.180;11.400;2023-07-29T06:15:51;17.60;99.90
48007;DHT22;33771;48.180;11.400;2023-07-29T06:18:16;17.60;99.90
48007;DHT22;33771;48.180;11.400;2023-07-29T06:20:42;17.70;99.90
48007;DHT22;33771;48.180;11.400;2023-07-29T06:23:08;17.80;99.90
48007;DHT22;33771;48.180;11.400;2023-07-29T06:25:33;17.90;99.90
48007;DHT22;33771;48.180;11.400;2023-07-29T06:27:59;18.00;99.90
48007;DHT22;33771;48.180;11.400;2023-07-29T06:30:25;18.10;99.90
48007;DHT22;33771;48.180;11.400;2023-07-29T06:32:51;18.20;99.90
48007;DHT22;33771;48.180;11.400;2023-07-29T06:35:16;18.30;99.90
48007;DHT22;33771;48.180;11.400;2023-07-29T06:37:42;18.40;99.90
48007;DHT22;33771;48.180;11.400;2023-07-29T06:40:08;18.50;99.90
48007;DHT22;33771;48.180;11.400;2023-07-29T06:42:33;18.60;99.90
48007;DHT22;33771;48.180;11.400;2023-07-29T06:44:59;18.60;99.90
48007;DHT22;33771;48.180;11.400;2023-07-29T06:47:24;18.50;99.90
48007;DHT22;33771;48.180;11.400;2023-07-29T06:49:50;18.40;99.90
48007;DHT22;33771;48.180;11.400;2023-07-29T06:52:15;18.40;99.90
48007;DHT22;33771;48.180;11.400;2023-07-29T06:54:41;18.30;99.90
48007;DHT22;33771;48.180;11.400;2023-07-29T06:57:06;18.20;99.90
48007;DHT22;33771;48.180;11.400;2023-07-29T06:59:32;18.20;99.90
48007;DHT22;33771;48.180;11.400;2023-07-29T07:01:57;18.10;99.90
48007;DHT22;33771;48.180;11.400;2023-07-29T07:04:25;18.00;99.90
48007;DHT22;33771;48.180;11.400;2023-07-29T07:06:50;18.00;99.90
48007;DHT22;33771;48.180;11.400;2023-07-29T07:09:16;17.90;99.90
48007;DHT22;33771;48.180;11.400;2023-07-29T07:11:42;17.90;99.90
48007;DHT22;33771;48.180;11.400;2023-07-29T07:14:07;17.90;99.90
48007;DHT22;33771;48.180;11.400;2023-07-29T07:16:33;17.80;99.90
48007;DHT22;33771;48.180;11.400;2023-07-29T07:18:58;17.90;99.90
48007;DHT22;33771;48.180;11.400;2023-07-29T07:21:24;17.80;99.90
48007;DHT22;33771;48.180;11.400;2023-07-29T07:23:50;17.80;99.90
48007;DHT22;33771;48.180;11.400;2023-07-29T07:26:16;17.80;99.90
48007;DHT22;33771;48.180;11.400;2023-07-29T07:28:41;17.80;99.90
48007;DHT22;33771;48.180;11.400;2023-07-29T07:31:07;17.70;99.90
48007;DHT22;33771;48.180;11.400;2023-07-29T07:33:32;17.70;99.90
48007;DHT22;33771;48.180;11.400;2023-07-29T07:35:58;17.80;99.90
48007;DHT22;33771;48.180;11.400;2023-07-29T07:38:23;17.80;99.90
48007;DHT22;33771;48.180;11.400;2023-07-29T07:40:56;17.90;99.90
48007;DHT22;33771;48.180;11.400;2023-07-29T07:43:22;18.10;99.90
48007;DHT22;33771;48.180;11.400;2023-07-29T07:45:48;18.20;99.90
48007;DHT22;33771;48.180;11.400;2023-07-29T07:48:13;18.30;99.90
48007;DHT22;33771;48.180;11.400;2023-07-29T07:50:39;18.40;99.90
48007;DHT22;33771;48.180;11.400;2023-07-29T07:53:05;18.50;99.90
48007;DHT22;33771;48.180;11.400;2023-07-29T07:55:30;18.60;99.90
48007;DHT22;33771;48.180;11.400;2023-07-29T07:57:56;18.70;99.90
48007;DHT22;33771;48.180;11.400;2023-07-29T08:00:21;18.80;99.90
48007;DHT22;33771;48.180;11.400;2023-07-29T08:02:47;18.90;99.90
48007;DHT22;33771;48.180;11.400;2023-07-29T08:05:12;18.90;99.90
48007;DHT22;33771;48.180;11.400;2023-07-29T08:07:38;19.00;99.90
48007;DHT22;33771;48.180;11.400;2023-07-29T08:10:04;19.10;99.90
48007;DHT22;33771;48.180;11.400;2023-07-29T08:12:30;19.20;99.90
48007;DHT22;33771;48.180;11.400;2023-07-29T08:14:55;19.30;99.90
48007;DHT22;33771;48.180;11.400;2023-07-29T08:17:21;19.30;99.90
48007;DHT22;33771;48.180;11.400;2023-07-29T08:19:46;19.40;99.90
48007;DHT22;33771;48.180;11.400;2023-07-29T08:22:12;19.60;99.90
48007;DHT22;33771;48.180;11.400;2023-07-29T08:24:38;19.70;99.90
48007;DHT22;33771;48.180;11.400;2023-07-29T08:27:03;19.80;99.90
48007;DHT22;33771;48.180;11.400;2023-07-29T08:29:29;19.90;99.90
48007;DHT22;33771;48.180;11.400;2023-07-29T08:31:54;20.00;99.90
48007;DHT22;33771;48.180;11.400;2023-07-29T08:34:20;20.10;99.90
48007;DHT22;33771;48.180;11.400;2023-07-29T08:36:46;20.20;99.90
48007;DHT22;33771;48.180;11.400;2023-07-29T08:39:11;20.20;99.90
48007;DHT22;33771;48.180;11.400;2023-07-29T08:42:13;20.20;99.90
48007;DHT22;33771;48.180;11.400;2023-07-29T08:44:41;20.30;99.90
48007;DHT22;33771;48.180;11.400;2023-07-29T08:47:07;20.30;99.90
48007;DHT22;33771;48.180;11.400;2023-07-29T08:49:33;20.40;99.90
48007;DHT22;33771;48.180;11.400;2023-07-29T08:51:59;20.50;99.90
48007;DHT22;33771;48.180;11.400;2023-07-29T08:54:26;20.60;99.90
48007;DHT22;33771;48.180;11.400;2023-07-29T08:56:52;20.70;99.90
48007;DHT22;33771;48.180;11.400;2023-07-29T08:59:19;20.70;99.90
48007;DHT22;33771;48.180;11.400;2023-07-29T09:01:44;20.70;99.90
48007;DHT22;33771;48.180;11.400;2023-07-29T09:04:10;20.80;99.90
48007;DHT22;33771;48.180;11.400;2023-07-29T09:06:36;21.00;99.90
48007;DHT22;33771;48.180;11.400;2023-07-29T09:09:07;21.00;99.90
48007;DHT22;33771;48.180;11.400;2023-07-29T09:11:33;21.10;99.90
48007;DHT22;33771;48.180;11.400;2023-07-29T09:13:59;21.30;99.90
48007;DHT22;33771;48.180;11.400;2023-07-29T09:16:26;21.50;99.90
48007;DHT22;33771;48.180;11.400;2023-07-29T09:18:51;21.60;99.90
48007;DHT22;33771;48.180;11.400;2023-07-29T09:21:18;21.80;99.90
48007;DHT22;33771;48.180;11.400;2023-07-29T09:23:50;21.90;99.90
48007;DHT22;33771;48.180;11.400;2023-07-29T09:26:22;22.00;99.90
48007;DHT22;33771;48.180;11.400;2023-07-29T09:28:55;22.20;99.90
48007;DHT22;33771;48.180;11.400;2023-07-29T09:31:26;22.30;99.90
48007;DHT22;33771;48.180;11.400;2023-07-29T09:33:59;22.50;99.90
48007;DHT22;33771;48.180;11.400;2023-07-29T09:36:26;22.60;99.90
48007;DHT22;33771;48.180;11.400;2023-07-29T09:38:53;22.90;99.90
48007;DHT22;33771;48.180;11.400;2023-07-29T09:41:30;23.10;99.90
48007;DHT22;33771;48.180;11.400;2023-07-29T09:43:57;23.40;99.90
48007;DHT22;33771;48.180;11.400;2023-07-29T09:46:24;23.80;99.90
48007;DHT22;33771;48.180;11.400;2023-07-29T09:48:53;24.00;99.90
48007;DHT22;33771;48.180;11.400;2023-07-29T09:51:20;24.40;99.90
48007;DHT22;33771;48.180;11.400;2023-07-29T09:53:47;24.70;99.90
48007;DHT22;33771;48.180;11.400;2023-07-29T09:56:13;24.80;99.90
48007;DHT22;33771;48.180;11.400;2023-07-29T09:58:39;25.10;99.90
48007;DHT22;33771;48.180;11.400;2023-07-29T10:01:08;25.30;99.90
48007;DHT22;33771;48.180;11.400;2023-07-29T10:03:34;25.30;99.90
48007;DHT22;33771;48.180;11.400;2023-07-29T10:06:02;25.20;99.90
48007;DHT22;33771;48.180;11.400;2023-07-29T10:08:30;25.10;99.90
48007;DHT22;33771;48.180;11.400;2023-07-29T10:10:59;25.30;99.90
48007;DHT22;33771;48.180;11.400;2023-07-29T10:13:26;25.50;99.90
48007;DHT22;33771;48.180;11.400;2023-07-29T10:15:53;25.80;99.90
48007;DHT22;33771;48.180;11.400;2023-07-29T10:18:20;26.00;99.90
48007;DHT22;33771;48.180;11.400;2023-07-29T10:20:50;26.10;99.90
48007;DHT22;33771;48.180;11.400;2023-07-29T10:23:17;26.20;99.90
48007;DHT22;33771;48.180;11.400;2023-07-29T10:25:47;26.30;99.90
48007;DHT22;33771;48.180;11.400;2023-07-29T10:28:15;26.60;99.90
48007;DHT22;33771;48.180;11.400;2023-07-29T10:30:42;26.70;99.90
48007;DHT22;33771;48.180;11.400;2023-07-29T10:33:08;26.90;99.90
48007;DHT22;33771;48.180;11.400;2023-07-29T10:35:36;27.00;99.90
48007;DHT22;33771;48.180;11.400;2023-07-29T10:38:03;27.00;99.90
48007;DHT22;33771;48.180;11.400;2023-07-29T10:40:55;26.80;99.90
48007;DHT22;33771;48.180;11.400;2023-07-29T10:43:34;26.60;99.90
48007;DHT22;33771;48.180;11.400;2023-07-29T10:46:19;26.30;99.90
48007;DHT22;33771;48.180;11.400;2023-07-29T10:51:30;25.60;99.90
48007;DHT22;33771;48.180;11.400;2023-07-29T10:54:14;25.30;99.90
48007;DHT22;33771;48.180;11.400;2023-07-29T10:56:46;25.10;99.90
48007;DHT22;33771;48.180;11.400;2023-07-29T11:01:39;25.00;99.90
48007;DHT22;33771;48.180;11.400;2023-07-29T11:07:22;24.80;99.90
48007;DHT22;33771;48.180;11.400;2023-07-29T11:15:04;23.50;99.90
48007;DHT22;33771;48.180;11.400;2023-07-29T11:17:57;23.30;99.90
48007;DHT22;33771;48.180;11.400;2023-07-29T11:20:24;23.10;99.90
48007;DHT22;33771;48.180;11.400;2023-07-29T11:22:51;22.80;99.90
48007;DHT22;33771;48.180;11.400;2023-07-29T11:25:18;22.50;99.90
48007;DHT22;33771;48.180;11.400;2023-07-29T11:27:45;22.30;99.90
48007;DHT22;33771;48.180;11.400;2023-07-29T11:30:12;22.40;99.90
48007;DHT22;33771;48.180;11.400;2023-07-29T11:32:40;22.80;99.90
48007;DHT22;33771;48.180;11.400;2023-07-29T11:35:08;23.30;99.90
48007;DHT22;33771;48.180;11.400;2023-07-29T11:37:35;23.70;99.90
48007;DHT22;33771;48.180;11.400;2023-07-29T11:40:01;24.10;99.90
48007;DHT22;33771;48.180;11.400;2023-07-29T11:42:27;24.60;99.90
48007;DHT22;33771;48.180;11.400;2023-07-29T11:44:57;25.10;99.90
48007;DHT22;33771;48.180;11.400;2023-07-29T11:47:23;25.40;99.90
48007;DHT22;33771;48.180;11.400;2023-07-29T11:49:49;25.60;99.90
48007;DHT22;33771;48.180;11.400;2023-07-29T11:52:14;25.90;99.90
48007;DHT22;33771;48.180;11.400;2023-07-29T11:54:44;25.80;99.90
48007;DHT22;33771;48.180;11.400;2023-07-29T11:57:10;25.80;99.90
48007;DHT22;33771;48.180;11.400;2023-07-29T11:59:37;26.00;99.90
48007;DHT22;33771;48.180;11.400;2023-07-29T12:02:11;26.30;99.90
48007;DHT22;33771;48.180;11.400;2023-07-29T12:04:38;26.60;99.90
48007;DHT22;33771;48.180;11.400;2023-07-29T12:07:05;26.90;99.90
48007;DHT22;33771;48.180;11.400;2023-07-29T12:09:31;27.20;99.90
48007;DHT22;33771;48.180;11.400;2023-07-29T12:11:57;27.60;99.90
48007;DHT22;33771;48.180;11.400;2023-07-29T12:14:26;27.70;99.90
48007;DHT22;33771;48.180;11.400;2023-07-29T12:16:53;27.40;99.90
48007;DHT22;33771;48.180;11.400;2023-07-29T12:19:19;27.30;99.90
48007;DHT22;33771;48.180;11.400;2023-07-29T12:21:45;27.20;99.90
48007;DHT22;33771;48.180;11.400;2023-07-29T12:24:13;26.90;99.90
48007;DHT22;33771;48.180;11.400;2023-07-29T12:26:42;26.60;99.90
48007;DHT22;33771;48.180;11.400;2023-07-29T12:29:15;26.10;99.90
48007;DHT22;33771;48.180;11.400;2023-07-29T12:31:41;25.70;99.90
48007;DHT22;33771;48.180;11.400;2023-07-29T12:34:08;25.40;99.90
48007;DHT22;33771;48.180;11.400;2023-07-29T12:36:45;24.90;99.90
48007;DHT22;33771;48.180;11.400;2023-07-29T12:39:22;24.50;99.90
48007;DHT22;33771;48.180;11.400;2023-07-29T12:41:49;24.00;99.90
48007;DHT22;33771;48.180;11.400;2023-07-29T12:44:15;23.30;99.90
48007;DHT22;33771;48.180;11.400;2023-07-29T12:46:41;22.80;99.90
48007;DHT22;33771;48.180;11.400;2023-07-29T12:49:07;22.30;99.90
48007;DHT22;33771;48.180;11.400;2023-07-29T12:51:32;22.00;99.90
48007;DHT22;33771;48.180;11.400;2023-07-29T12:53:58;21.70;99.90
48007;DHT22;33771;48.180;11.400;2023-07-29T12:56:24;21.40;99.90
48007;DHT22;33771;48.180;11.400;2023-07-29T12:58:49;21.20;99.90
48007;DHT22;33771;48.180;11.400;2023-07-29T13:01:15;21.00;99.90
48007;DHT22;33771;48.180;11.400;2023-07-29T13:03:44;20.90;99.90
48007;DHT22;33771;48.180;11.400;2023-07-29T13:06:11;20.70;99.90
48007;DHT22;33771;48.180;11.400;2023-07-29T13:08:36;20.60;99.90
48007;DHT22;33771;48.180;11.400;2023-07-29T13:11:02;20.50;99.90
48007;DHT22;33771;48.180;11.400;2023-07-29T13:13:28;20.40;99.90
48007;DHT22;33771;48.180;11.400;2023-07-29T13:15:54;20.40;99.90
48007;DHT22;33771;48.180;11.400;2023-07-29T13:18:20;20.30;99.90
48007;DHT22;33771;48.180;11.400;2023-07-29T13:20:46;20.30;99.90
48007;DHT22;33771;48.180;11.400;2023-07-29T13:23:11;20.20;99.90
48007;DHT22;33771;48.180;11.400;2023-07-29T13:25:37;20.20;99.90
48007;DHT22;33771;48.180;11.400;2023-07-29T13:28:03;20.20;99.90
48007;DHT22;33771;48.180;11.400;2023-07-29T13:30:28;20.30;99.90
48007;DHT22;33771;48.180;11.400;2023-07-29T13:32:54;20.30;99.90
48007;DHT22;33771;48.180;11.400;2023-07-29T13:35:20;20.30;99.90
48007;DHT22;33771;48.180;11.400;2023-07-29T13:37:45;20.30;99.90
48007;DHT22;33771;48.180;11.400;2023-07-29T13:40:11;20.30;99.90
48007;DHT22;33771;48.180;11.400;2023-07-29T13:42:36;20.30;99.90
48007;DHT22;33771;48.180;11.400;2023-07-29T13:45:02;20.20;99.90
48007;DHT22;33771;48.180;11.400;2023-07-29T13:47:28;20.20;99.90
48007;DHT22;33771;48.180;11.400;2023-07-29T13:49:53;20.20;99.90
48007;DHT22;33771;48.180;11.400;2023-07-29T13:52:19;20.20;99.90
48007;DHT22;33771;48.180;11.400;2023-07-29T13:54:44;20.20;99.90
48007;DHT22;33771;48.180;11.400;2023-07-29T13:57:10;20.20;99.90
48007;DHT22;33771;48.180;11.400;2023-07-29T13:59:36;20.20;99.90
48007;DHT22;33771;48.180;11.400;2023-07-29T14:02:04;20.20;99.90
48007;DHT22;33771;48.180;11.400;2023-07-29T14:04:31;20.20;99.90
48007;DHT22;33771;48.180;11.400;2023-07-29T14:06:57;20.20;99.90
48007;DHT22;33771;48.180;11.400;2023-07-29T14:09:22;20.20;99.90
48007;DHT22;33771;48.180;11.400;2023-07-29T14:11:48;20.10;99.90
48007;DHT22;33771;48.180;11.400;2023-07-29T14:14:13;20.10;99.90
48007;DHT22;33771;48.180;11.400;2023-07-29T14:16:39;20.10;99.90
48007;DHT22;33771;48.180;11.400;2023-07-29T14:19:04;20.00;99.90
48007;DHT22;33771;48.180;11.400;2023-07-29T14:21:30;20.00;99.90
48007;DHT22;33771;48.180;11.400;2023-07-29T14:23:55;19.90;99.90
48007;DHT22;33771;48.180;11.400;2023-07-29T14:26:21;19.90;99.90
48007;DHT22;33771;48.180;11.400;2023-07-29T14:28:46;19.80;99.90
48007;DHT22;33771;48.180;11.400;2023-07-29T14:31:12;19.70;99.90
48007;DHT22;33771;48.180;11.400;2023-07-29T14:33:38;19.60;99.90
48007;DHT22;33771;48.180;11.400;2023-07-29T14:36:04;19.50;99.90
48007;DHT22;33771;48.180;11.400;2023-07-29T14:38:29;19.40;99.90
48007;DHT22;33771;48.180;11.400;2023-07-29T14:40:55;19.40;99.90
48007;DHT22;33771;48.180;11.400;2023-07-29T14:43:22;19.30;99.90
48007;DHT22;33771;48.180;11.400;2023-07-29T14:45:48;19.30;99.90
48007;DHT22;33771;48.180;11.400;2023-07-29T14:48:14;19.20;99.90
48007;DHT22;33771;48.180;11.400;2023-07-29T14:50:39;19.20;99.90
48007;DHT22;33771;48.180;11.400;2023-07-29T14:53:05;19.20;99.90
48007;DHT22;33771;48.180;11.400;2023-07-29T14:55:30;19.20;99.90
48007;DHT22;33771;48.180;11.400;2023-07-29T14:57:56;19.10;99.90
48007;DHT22;33771;48.180;11.400;2023-07-29T15:00:21;19.00;99.90
48007;DHT22;33771;48.180;11.400;2023-07-29T15:02:47;19.00;99.90
48007;DHT22;33771;48.180;11.400;2023-07-29T15:05:13;19.00;99.90
48007;DHT22;33771;48.180;11.400;2023-07-29T15:07:38;18.90;99.90
48007;DHT22;33771;48.180;11.400;2023-07-29T15:10:04;18.90;99.90
48007;DHT22;33771;48.180;11.400;2023-07-29T15:12:30;18.80;99.90
48007;DHT22;33771;48.180;11.400;2023-07-29T15:14:55;18.70;99.90
48007;DHT22;33771;48.180;11.400;2023-07-29T15:17:21;18.70;99.90
48007;DHT22;33771;48.180;11.400;2023-07-29T15:19:46;18.60;99.90
48007;DHT22;33771;48.180;11.400;2023-07-29T15:22:15;18.60;99.90
48007;DHT22;33771;48.180;11.400;2023-07-29T15:24:41;18.60;99.90
48007;DHT22;33771;48.180;11.400;2023-07-29T15:27:09;18.50;99.90
48007;DHT22;33771;48.180;11.400;2023-07-29T15:29:34;18.50;99.90